sensor_id;sensor_type;location;lat;lon;timestamp;pressure;altitude;pressure_sealevel;temperature;humidity
60817;BME280;51921;51.518;-3.188;2023-02-16T00:00:22;101784.90;;;6.52;100.00
60817;BME280;51921;51.518;-3.188;2023-02-16T00:02:45;101783.67;;;6.90;98.14
60817;BME280;51921;51.518;-3.188;2023-02-16T00:05:21;101779.01;;;6.73;99.51
60817;BME280;51921;51.518;-3.188;2023-02-16T00:07:36;101773.41;;;6.49;100.00
60817;BME280;51921;51.518;-3.188;2023-02-16T00:10:01;101765.22;;;6.61;99.44
60817;BME280;51921;51.518;-3.188;2023-02-16T00:12:27;101763.85;;;6.04;100.00
60817;BME280;51921;51.518;-3.188;2023-02-16T00:14:52;101764.50;;;6.71;100.00
60817;BME280;51921;51.518;-3.188;2023-02-16T00:17:18;101764.90;;;5.73;100.00
60817;BME280;51921;51.518;-3.188;2023-02-16T00:19:43;101763.15;;;6.63;100.00
60817;BME280;51921;51.518;-3.188;2023-02-16T00:22:09;101753.76;;;6.57;99.93
60817;BME280;51921;51.518;-3.188;2023-02-16T00:24:35;101744.43;;;7.40;96.46
60817;BME280;51921;51.518;-3.188;2023-02-16T00:27:00;101736.90;;;7.22;96.67
60817;BME280;51921;51.518;-3.188;2023-02-16T00:29:28;101734.47;;;6.54;97.66
60817;BME280;51921;51.518;-3.188;2023-02-16T00:31:52;101726.65;;;7.12;97.00
60817;BME280;51921;51.518;-3.188;2023-02-16T00:34:25;101726.18;;;7.76;92.19
60817;BME280;51921;51.518;-3.188;2023-02-16T00:36:42;101723.75;;;7.85;90.26
60817;BME280;51921;51.518;-3.188;2023-02-16T00:39:08;101728.34;;;7.70;89.39
60817;BME280;51921;51.518;-3.188;2023-02-16T00:41:33;101723.35;;;8.01;89.36
60817;BME280;51921;51.518;-3.188;2023-02-16T00:43:58;101726.06;;;7.98;87.96
60817;BME280;51921;51.518;-3.188;2023-02-16T00:46:24;101723.74;;;8.20;89.56
60817;BME280;51921;51.518;-3.188;2023-02-16T00:48:49;101715.27;;;7.59;89.56
60817;BME280;51921;51.518;-3.188;2023-02-16T00:51:15;101714.26;;;7.29;91.45
60817;BME280;51921;51.518;-3.188;2023-02-16T00:53:40;101712.55;;;7.98;90.07
60817;BME280;51921;51.518;-3.188;2023-02-16T00:56:08;101717.94;;;7.75;89.83
60817;BME280;51921;51.518;-3.188;2023-02-16T00:58:31;101720.24;;;6.97;92.90
60817;BME280;51921;51.518;-3.188;2023-02-16T01:01:01;101713.02;;;7.43;89.68
60817;BME280;51921;51.518;-3.188;2023-02-16T01:03:25;101712.14;;;7.25;94.53
60817;BME280;51921;51.518;-3.188;2023-02-16T01:05:48;101712.15;;;7.12;93.31
60817;BME280;51921;51.518;-3.188;2023-02-16T01:08:15;101709.90;;;7.98;87.72
60817;BME280;51921;51.518;-3.188;2023-02-16T01:10:39;101708.14;;;6.83;94.08
60817;BME280;51921;51.518;-3.188;2023-02-16T01:13:05;101704.30;;;7.72;90.48
60817;BME280;51921;51.518;-3.188;2023-02-16T01:15:30;101704.11;;;8.44;88.08
60817;BME280;51921;51.518;-3.188;2023-02-16T01:17:55;101699.32;;;7.40;92.62
60817;BME280;51921;51.518;-3.188;2023-02-16T01:20:23;101695.15;;;7.58;91.11
60817;BME280;51921;51.518;-3.188;2023-02-16T01:22:48;101691.56;;;8.24;89.61
60817;BME280;51921;51.518;-3.188;2023-02-16T01:25:13;101689.99;;;8.01;89.99
60817;BME280;51921;51.518;-3.188;2023-02-16T01:27:38;101690.77;;;7.53;91.61
60817;BME280;51921;51.518;-3.188;2023-02-16T01:30:04;101687.66;;;7.91;92.03
60817;BME280;51921;51.518;-3.188;2023-02-16T01:32:29;101684.50;;;7.44;90.67
60817;BME280;51921;51.518;-3.188;2023-02-16T01:34:54;101681.32;;;7.77;92.89
60817;BME280;51921;51.518;-3.188;2023-02-16T01:37:20;101675.80;;;7.77;91.78
60817;BME280;51921;51.518;-3.188;2023-02-16T01:39:45;101667.31;;;7.38;93.62
60817;BME280;51921;51.518;-3.188;2023-02-16T01:42:19;101669.46;;;8.14;92.66
60817;BME280;51921;51.518;-3.188;2023-02-16T01:44:40;101665.07;;;8.22;92.60
60817;BME280;51921;51.518;-3.188;2023-02-16T01:47:06;101668.53;;;7.40;95.53
60817;BME280;51921;51.518;-3.188;2023-02-16T01:49:27;101663.88;;;7.51;96.91
60817;BME280;51921;51.518;-3.188;2023-02-16T01:51:57;101661.66;;;8.49;92.45
60817;BME280;51921;51.518;-3.188;2023-02-16T01:54:28;101655.52;;;8.30;92.57
60817;BME280;51921;51.518;-3.188;2023-02-16T01:56:49;101652.38;;;8.30;93.63
60817;BME280;51921;51.518;-3.188;2023-02-16T01:59:17;101652.28;;;8.71;91.69
60817;BME280;51921;51.518;-3.188;2023-02-16T02:01:39;101649.88;;;8.26;94.36
60817;BME280;51921;51.518;-3.188;2023-02-16T02:04:01;101645.38;;;7.43;94.60
60817;BME280;51921;51.518;-3.188;2023-02-16T02:06:31;101638.82;;;8.31;94.59
60817;BME280;51921;51.518;-3.188;2023-02-16T02:08:57;101629.69;;;9.36;89.35
60817;BME280;51921;51.518;-3.188;2023-02-16T02:11:20;101624.22;;;8.21;93.14
60817;BME280;51921;51.518;-3.188;2023-02-16T02:13:46;101618.18;;;9.01;90.79
60817;BME280;51921;51.518;-3.188;2023-02-16T02:16:08;101612.53;;;9.02;90.32
60817;BME280;51921;51.518;-3.188;2023-02-16T02:18:33;101608.97;;;9.12;89.33
60817;BME280;51921;51.518;-3.188;2023-02-16T02:21:10;101606.92;;;8.33;91.94
60817;BME280;51921;51.518;-3.188;2023-02-16T02:23:39;101603.20;;;7.92;93.58
60817;BME280;51921;51.518;-3.188;2023-02-16T02:26:08;101595.95;;;8.61;93.51
60817;BME280;51921;51.518;-3.188;2023-02-16T02:28:18;101594.66;;;7.34;98.59
60817;BME280;51921;51.518;-3.188;2023-02-16T02:30:46;101595.37;;;7.98;96.63
60817;BME280;51921;51.518;-3.188;2023-02-16T02:33:22;101592.34;;;7.94;99.29
60817;BME280;51921;51.518;-3.188;2023-02-16T02:35:39;101590.80;;;7.83;96.74
60817;BME280;51921;51.518;-3.188;2023-02-16T02:38:02;101587.60;;;7.61;100.00
60817;BME280;51921;51.518;-3.188;2023-02-16T02:40:30;101585.26;;;8.14;96.67
60817;BME280;51921;51.518;-3.188;2023-02-16T02:42:55;101578.76;;;8.76;94.65
60817;BME280;51921;51.518;-3.188;2023-02-16T02:45:17;101576.70;;;8.19;97.82
60817;BME280;51921;51.518;-3.188;2023-02-16T02:47:41;101574.69;;;8.06;97.60
60817;BME280;51921;51.518;-3.188;2023-02-16T02:52:30;101563.22;;;7.82;100.00
60817;BME280;51921;51.518;-3.188;2023-02-16T02:54:55;101564.36;;;7.86;100.00
60817;BME280;51921;51.518;-3.188;2023-02-16T02:57:25;101561.27;;;7.87;100.00
60817;BME280;51921;51.518;-3.188;2023-02-16T02:59:50;101559.85;;;8.09;100.00
60817;BME280;51921;51.518;-3.188;2023-02-16T03:02:13;101560.58;;;7.26;100.00
60817;BME280;51921;51.518;-3.188;2023-02-16T03:04:38;101550.72;;;7.79;100.00
60817;BME280;51921;51.518;-3.188;2023-02-16T03:07:04;101541.94;;;7.55;100.00
60817;BME280;51921;51.518;-3.188;2023-02-16T03:09:28;101538.92;;;7.54;100.00
60817;BME280;51921;51.518;-3.188;2023-02-16T03:11:55;101538.41;;;7.80;100.00
60817;BME280;51921;51.518;-3.188;2023-02-16T03:14:23;101539.50;;;7.85;100.00
60817;BME280;51921;51.518;-3.188;2023-02-16T03:16:48;101538.84;;;8.03;100.00
60817;BME280;51921;51.518;-3.188;2023-02-16T03:19:12;101537.36;;;7.43;100.00
60817;BME280;51921;51.518;-3.188;2023-02-16T03:21:36;101538.83;;;7.29;100.00
60817;BME280;51921;51.518;-3.188;2023-02-16T03:24:04;101527.67;;;6.23;100.00
60817;BME280;51921;51.518;-3.188;2023-02-16T03:26:29;101518.67;;;7.12;100.00
60817;BME280;51921;51.518;-3.188;2023-02-16T03:28:53;101518.87;;;7.58;100.00
60817;BME280;51921;51.518;-3.188;2023-02-16T03:31:21;101514.36;;;7.63;100.00
60817;BME280;51921;51.518;-3.188;2023-02-16T03:33:44;101512.05;;;7.79;100.00
60817;BME280;51921;51.518;-3.188;2023-02-16T03:36:10;101502.63;;;7.66;100.00
60817;BME280;51921;51.518;-3.188;2023-02-16T03:38:35;101501.70;;;8.01;100.00
60817;BME280;51921;51.518;-3.188;2023-02-16T03:41:00;101496.46;;;7.10;100.00
60817;BME280;51921;51.518;-3.188;2023-02-16T03:43:27;101496.32;;;7.65;100.00
60817;BME280;51921;51.518;-3.188;2023-02-16T03:45:51;101491.17;;;7.29;100.00
60817;BME280;51921;51.518;-3.188;2023-02-16T03:48:17;101487.20;;;6.88;100.00
60817;BME280;51921;51.518;-3.188;2023-02-16T03:50:43;101485.24;;;7.46;100.00
60817;BME280;51921;51.518;-3.188;2023-02-16T03:53:08;101478.33;;;7.57;100.00
60817;BME280;51921;51.518;-3.188;2023-02-16T03:55:34;101471.11;;;6.55;100.00
60817;BME280;51921;51.518;-3.188;2023-02-16T03:57:59;101468.97;;;6.74;100.00
60817;BME280;51921;51.518;-3.188;2023-02-16T04:00:24;101469.82;;;6.25;100.00
60817;BME280;51921;51.518;-3.188;2023-02-16T04:02:50;101469.65;;;6.69;100.00
60817;BME280;51921;51.518;-3.188;2023-02-16T04:05:15;101468.10;;;7.26;100.00
60817;BME280;51921;51.518;-3.188;2023-02-16T04:07:41;101467.61;;;6.55;100.00
60817;BME280;51921;51.518;-3.188;2023-02-16T04:10:06;101467.43;;;7.62;100.00
60817;BME280;51921;51.518;-3.188;2023-02-16T04:12:32;101462.38;;;7.01;100.00
60817;BME280;51921;51.518;-3.188;2023-02-16T04:14:58;101460.25;;;6.05;100.00
60817;BME280;51921;51.518;-3.188;2023-02-16T04:17:23;101460.15;;;6.57;100.00
60817;BME280;51921;51.518;-3.188;2023-02-16T04:19:48;101460.66;;;7.56;100.00
60817;BME280;51921;51.518;-3.188;2023-02-16T04:22:14;101460.68;;;6.52;100.00
60817;BME280;51921;51.518;-3.188;2023-02-16T04:24:45;101458.93;;;7.19;100.00
60817;BME280;51921;51.518;-3.188;2023-02-16T04:27:05;101462.82;;;6.91;100.00
60817;BME280;51921;51.518;-3.188;2023-02-16T04:29:30;101459.87;;;6.13;100.00
60817;BME280;51921;51.518;-3.188;2023-02-16T04:31:56;101460.60;;;6.49;100.00
60817;BME280;51921;51.518;-3.188;2023-02-16T04:34:21;101457.71;;;6.49;100.00
60817;BME280;51921;51.518;-3.188;2023-02-16T04:36:47;101457.54;;;6.52;100.00
60817;BME280;51921;51.518;-3.188;2023-02-16T04:39:12;101456.56;;;7.01;100.00
60817;BME280;51921;51.518;-3.188;2023-02-16T04:41:38;101446.22;;;7.47;100.00
60817;BME280;51921;51.518;-3.188;2023-02-16T04:44:04;101443.32;;;6.76;100.00
60817;BME280;51921;51.518;-3.188;2023-02-16T04:46:29;101446.49;;;7.04;100.00
60817;BME280;51921;51.518;-3.188;2023-02-16T04:48:55;101455.34;;;6.45;100.00
60817;BME280;51921;51.518;-3.188;2023-02-16T04:51:20;101463.11;;;6.18;100.00
60817;BME280;51921;51.518;-3.188;2023-02-16T04:53:46;101467.00;;;6.73;100.00
60817;BME280;51921;51.518;-3.188;2023-02-16T04:56:11;101468.71;;;6.54;100.00
60817;BME280;51921;51.518;-3.188;2023-02-16T05:01:03;101461.86;;;7.18;100.00
60817;BME280;51921;51.518;-3.188;2023-02-16T05:03:28;101458.98;;;6.66;100.00
60817;BME280;51921;51.518;-3.188;2023-02-16T05:05:53;101460.89;;;6.99;100.00
60817;BME280;51921;51.518;-3.188;2023-02-16T05:08:19;101459.47;;;6.96;100.00
60817;BME280;51921;51.518;-3.188;2023-02-16T05:10:50;101458.21;;;6.55;100.00
60817;BME280;51921;51.518;-3.188;2023-02-16T05:13:10;101454.22;;;6.27;100.00
60817;BME280;51921;51.518;-3.188;2023-02-16T05:15:36;101452.95;;;6.49;100.00
60817;BME280;51921;51.518;-3.188;2023-02-16T05:18:01;101460.11;;;6.53;100.00
60817;BME280;51921;51.518;-3.188;2023-02-16T05:20:27;101455.89;;;7.91;100.00
60817;BME280;51921;51.518;-3.188;2023-02-16T05:22:52;101450.52;;;7.24;100.00
60817;BME280;51921;51.518;-3.188;2023-02-16T05:25:18;101442.56;;;7.18;100.00
60817;BME280;51921;51.518;-3.188;2023-02-16T05:27:43;101442.39;;;5.81;100.00
60817;BME280;51921;51.518;-3.188;2023-02-16T05:30:11;101431.46;;;6.29;100.00
60817;BME280;51921;51.518;-3.188;2023-02-16T05:32:34;101423.53;;;6.58;100.00
60817;BME280;51921;51.518;-3.188;2023-02-16T05:35:00;101417.99;;;6.40;100.00
60817;BME280;51921;51.518;-3.188;2023-02-16T05:37:25;101414.14;;;7.13;100.00
60817;BME280;51921;51.518;-3.188;2023-02-16T05:39:51;101413.25;;;6.65;100.00
60817;BME280;51921;51.518;-3.188;2023-02-16T05:42:16;101410.16;;;6.52;100.00
60817;BME280;51921;51.518;-3.188;2023-02-16T05:44:42;101407.77;;;6.36;100.00
60817;BME280;51921;51.518;-3.188;2023-02-16T05:47:08;101407.50;;;6.41;100.00
60817;BME280;51921;51.518;-3.188;2023-02-16T05:49:33;101401.50;;;6.35;100.00
60817;BME280;51921;51.518;-3.188;2023-02-16T05:51:59;101393.69;;;6.72;100.00
60817;BME280;51921;51.518;-3.188;2023-02-16T05:54:24;101390.05;;;6.40;100.00
60817;BME280;51921;51.518;-3.188;2023-02-16T05:56:51;101393.19;;;6.56;100.00
60817;BME280;51921;51.518;-3.188;2023-02-16T05:59:15;101405.02;;;6.22;100.00
60817;BME280;51921;51.518;-3.188;2023-02-16T06:01:41;101406.15;;;5.94;100.00
60817;BME280;51921;51.518;-3.188;2023-02-16T06:04:07;101402.97;;;6.37;100.00
60817;BME280;51921;51.518;-3.188;2023-02-16T06:06:32;101399.65;;;6.34;100.00
60817;BME280;51921;51.518;-3.188;2023-02-16T06:08:57;101398.14;;;6.32;100.00
60817;BME280;51921;51.518;-3.188;2023-02-16T06:11:23;101395.25;;;6.26;100.00
60817;BME280;51921;51.518;-3.188;2023-02-16T06:13:48;101390.63;;;6.71;100.00
60817;BME280;51921;51.518;-3.188;2023-02-16T06:16:14;101389.59;;;6.97;100.00
60817;BME280;51921;51.518;-3.188;2023-02-16T06:18:40;101386.23;;;7.20;100.00
60817;BME280;51921;51.518;-3.188;2023-02-16T06:21:05;101388.76;;;7.17;100.00
60817;BME280;51921;51.518;-3.188;2023-02-16T06:23:31;101387.01;;;6.67;100.00
60817;BME280;51921;51.518;-3.188;2023-02-16T06:25:56;101386.87;;;7.13;100.00
60817;BME280;51921;51.518;-3.188;2023-02-16T06:28:22;101387.36;;;6.42;100.00
60817;BME280;51921;51.518;-3.188;2023-02-16T06:30:47;101386.79;;;7.54;100.00
60817;BME280;51921;51.518;-3.188;2023-02-16T06:33:13;101383.84;;;7.18;100.00
60817;BME280;51921;51.518;-3.188;2023-02-16T06:35:38;101390.22;;;7.56;100.00
60817;BME280;51921;51.518;-3.188;2023-02-16T06:38:04;101393.68;;;7.31;100.00
60817;BME280;51921;51.518;-3.188;2023-02-16T06:40:29;101392.41;;;7.15;100.00
60817;BME280;51921;51.518;-3.188;2023-02-16T06:42:55;101389.02;;;7.82;100.00
60817;BME280;51921;51.518;-3.188;2023-02-16T06:45:20;101390.45;;;7.76;100.00
60817;BME280;51921;51.518;-3.188;2023-02-16T06:47:46;101393.93;;;7.58;100.00
60817;BME280;51921;51.518;-3.188;2023-02-16T06:50:12;101400.13;;;7.74;100.00
60817;BME280;51921;51.518;-3.188;2023-02-16T06:52:37;101399.49;;;7.35;100.00
60817;BME280;51921;51.518;-3.188;2023-02-16T06:55:03;101399.17;;;8.04;100.00
60817;BME280;51921;51.518;-3.188;2023-02-16T06:57:28;101398.17;;;8.17;100.00
60817;BME280;51921;51.518;-3.188;2023-02-16T06:59:55;101402.58;;;7.83;100.00
60817;BME280;51921;51.518;-3.188;2023-02-16T07:02:19;101408.56;;;8.23;100.00
60817;BME280;51921;51.518;-3.188;2023-02-16T07:04:45;101414.05;;;8.17;100.00
60817;BME280;51921;51.518;-3.188;2023-02-16T07:07:10;101411.78;;;8.56;100.00
60817;BME280;51921;51.518;-3.188;2023-02-16T07:09:36;101410.30;;;8.36;100.00
60817;BME280;51921;51.518;-3.188;2023-02-16T07:12:01;101410.87;;;8.93;100.00
60817;BME280;51921;51.518;-3.188;2023-02-16T07:14:27;101415.83;;;9.51;100.00
60817;BME280;51921;51.518;-3.188;2023-02-16T07:16:52;101408.82;;;8.33;100.00
60817;BME280;51921;51.518;-3.188;2023-02-16T07:19:18;101416.61;;;7.80;100.00
60817;BME280;51921;51.518;-3.188;2023-02-16T07:21:43;101424.52;;;8.26;100.00
60817;BME280;51921;51.518;-3.188;2023-02-16T07:26:34;101414.87;;;9.19;100.00
60817;BME280;51921;51.518;-3.188;2023-02-16T07:29:00;101414.24;;;8.15;100.00
60817;BME280;51921;51.518;-3.188;2023-02-16T07:31:25;101416.63;;;9.08;100.00
60817;BME280;51921;51.518;-3.188;2023-02-16T07:33:56;101416.53;;;8.71;100.00
60817;BME280;51921;51.518;-3.188;2023-02-16T07:36:16;101421.47;;;8.54;100.00
60817;BME280;51921;51.518;-3.188;2023-02-16T07:38:42;101419.87;;;7.75;100.00
60817;BME280;51921;51.518;-3.188;2023-02-16T07:41:07;101423.45;;;8.47;100.00
60817;BME280;51921;51.518;-3.188;2023-02-16T07:43:33;101421.62;;;8.49;100.00
60817;BME280;51921;51.518;-3.188;2023-02-16T07:45:58;101425.15;;;7.21;100.00
60817;BME280;51921;51.518;-3.188;2023-02-16T07:48:24;101431.65;;;6.65;100.00
60817;BME280;51921;51.518;-3.188;2023-02-16T07:50:49;101432.65;;;7.81;100.00
60817;BME280;51921;51.518;-3.188;2023-02-16T07:53:15;101434.75;;;7.99;100.00
60817;BME280;51921;51.518;-3.188;2023-02-16T07:55:41;101435.87;;;6.52;100.00
60817;BME280;51921;51.518;-3.188;2023-02-16T07:58:06;101433.12;;;7.63;100.00
60817;BME280;51921;51.518;-3.188;2023-02-16T08:00:31;101428.78;;;6.95;100.00
60817;BME280;51921;51.518;-3.188;2023-02-16T08:02:57;101429.97;;;7.75;100.00
60817;BME280;51921;51.518;-3.188;2023-02-16T08:05:22;101423.99;;;7.91;100.00
60817;BME280;51921;51.518;-3.188;2023-02-16T08:07:48;101426.94;;;7.91;100.00
60817;BME280;51921;51.518;-3.188;2023-02-16T08:10:14;101432.71;;;8.26;100.00
60817;BME280;51921;51.518;-3.188;2023-02-16T08:12:39;101433.99;;;8.31;100.00
60817;BME280;51921;51.518;-3.188;2023-02-16T08:15:05;101434.70;;;7.63;100.00
60817;BME280;51921;51.518;-3.188;2023-02-16T08:17:30;101436.35;;;6.55;100.00
60817;BME280;51921;51.518;-3.188;2023-02-16T08:20:00;101431.58;;;7.44;100.00
60817;BME280;51921;51.518;-3.188;2023-02-16T08:22:21;101427.82;;;6.93;100.00
60817;BME280;51921;51.518;-3.188;2023-02-16T08:24:46;101428.20;;;8.26;100.00
60817;BME280;51921;51.518;-3.188;2023-02-16T08:27:12;101434.71;;;8.96;100.00
60817;BME280;51921;51.518;-3.188;2023-02-16T08:29:37;101436.83;;;8.26;100.00
60817;BME280;51921;51.518;-3.188;2023-02-16T08:32:03;101427.70;;;8.22;100.00
60817;BME280;51921;51.518;-3.188;2023-02-16T08:34:29;101432.48;;;8.58;100.00
60817;BME280;51921;51.518;-3.188;2023-02-16T08:36:55;101436.81;;;7.59;100.00
60817;BME280;51921;51.518;-3.188;2023-02-16T08:39:20;101440.44;;;7.95;100.00
60817;BME280;51921;51.518;-3.188;2023-02-16T08:41:46;101442.04;;;7.94;100.00
60817;BME280;51921;51.518;-3.188;2023-02-16T08:44:11;101442.02;;;9.19;100.00
60817;BME280;51921;51.518;-3.188;2023-02-16T08:46:38;101441.82;;;8.15;100.00
60817;BME280;51921;51.518;-3.188;2023-02-16T08:49:01;101447.95;;;8.48;100.00
60817;BME280;51921;51.518;-3.188;2023-02-16T08:53:53;101467.93;;;7.33;100.00
60817;BME280;51921;51.518;-3.188;2023-02-16T08:56:18;101466.17;;;7.92;100.00
60817;BME280;51921;51.518;-3.188;2023-02-16T08:58:43;101469.41;;;7.03;100.00
60817;BME280;51921;51.518;-3.188;2023-02-16T09:01:10;101474.69;;;7.02;100.00
60817;BME280;51921;51.518;-3.188;2023-02-16T09:03:35;101482.94;;;6.97;100.00
60817;BME280;51921;51.518;-3.188;2023-02-16T09:06:01;101482.48;;;7.21;100.00
60817;BME280;51921;51.518;-3.188;2023-02-16T09:08:26;101492.43;;;7.10;100.00
60817;BME280;51921;51.518;-3.188;2023-02-16T09:10:52;101490.74;;;6.54;100.00
60817;BME280;51921;51.518;-3.188;2023-02-16T09:13:16;101486.23;;;7.25;100.00
60817;BME280;51921;51.518;-3.188;2023-02-16T09:15:42;101490.85;;;6.90;100.00
60817;BME280;51921;51.518;-3.188;2023-02-16T09:18:18;101488.98;;;7.40;100.00
60817;BME280;51921;51.518;-3.188;2023-02-16T09:20:35;101499.43;;;7.23;100.00
60817;BME280;51921;51.518;-3.188;2023-02-16T09:22:58;101499.57;;;7.02;100.00
60817;BME280;51921;51.518;-3.188;2023-02-16T09:25:24;101497.93;;;7.14;100.00
60817;BME280;51921;51.518;-3.188;2023-02-16T09:27:49;101496.48;;;7.01;100.00
60817;BME280;51921;51.518;-3.188;2023-02-16T09:30:15;101500.59;;;7.23;100.00
60817;BME280;51921;51.518;-3.188;2023-02-16T09:32:40;101504.80;;;7.19;100.00
60817;BME280;51921;51.518;-3.188;2023-02-16T09:35:06;101500.47;;;6.73;100.00
60817;BME280;51921;51.518;-3.188;2023-02-16T09:37:32;101500.13;;;7.02;100.00
60817;BME280;51921;51.518;-3.188;2023-02-16T09:39:57;101504.29;;;6.97;100.00
60817;BME280;51921;51.518;-3.188;2023-02-16T09:42:30;101508.27;;;6.80;100.00
60817;BME280;51921;51.518;-3.188;2023-02-16T09:44:54;101511.33;;;6.67;100.00
60817;BME280;51921;51.518;-3.188;2023-02-16T09:47:21;101517.96;;;6.91;100.00
60817;BME280;51921;51.518;-3.188;2023-02-16T09:49:41;101521.88;;;6.38;100.00
60817;BME280;51921;51.518;-3.188;2023-02-16T09:54:37;101531.79;;;6.90;100.00
60817;BME280;51921;51.518;-3.188;2023-02-16T09:56:58;101539.68;;;7.01;100.00
60817;BME280;51921;51.518;-3.188;2023-02-16T09:59:32;101543.06;;;7.28;100.00
60817;BME280;51921;51.518;-3.188;2023-02-16T10:02:02;101543.69;;;8.10;100.00
60817;BME280;51921;51.518;-3.188;2023-02-16T10:04:25;101533.42;;;7.05;100.00
60817;BME280;51921;51.518;-3.188;2023-02-16T10:06:55;101537.53;;;7.66;100.00
60817;BME280;51921;51.518;-3.188;2023-02-16T10:09:06;101543.24;;;7.27;100.00
60817;BME280;51921;51.518;-3.188;2023-02-16T10:11:37;101547.21;;;7.55;100.00
60817;BME280;51921;51.518;-3.188;2023-02-16T10:13:57;101553.91;;;7.14;100.00
60817;BME280;51921;51.518;-3.188;2023-02-16T10:16:30;101561.93;;;6.51;100.00
60817;BME280;51921;51.518;-3.188;2023-02-16T10:18:52;101567.72;;;6.81;100.00
60817;BME280;51921;51.518;-3.188;2023-02-16T10:21:23;101573.44;;;7.14;100.00
60817;BME280;51921;51.518;-3.188;2023-02-16T10:23:44;101580.03;;;7.21;100.00
60817;BME280;51921;51.518;-3.188;2023-02-16T10:26:11;101577.82;;;7.51;100.00
60817;BME280;51921;51.518;-3.188;2023-02-16T10:28:36;101582.10;;;7.76;100.00
60817;BME280;51921;51.518;-3.188;2023-02-16T10:30:59;101586.01;;;6.96;100.00
60817;BME280;51921;51.518;-3.188;2023-02-16T10:33:28;101596.92;;;6.77;100.00
60817;BME280;51921;51.518;-3.188;2023-02-16T10:35:46;101600.71;;;6.67;100.00
60817;BME280;51921;51.518;-3.188;2023-02-16T10:38:16;101606.10;;;6.81;100.00
60817;BME280;51921;51.518;-3.188;2023-02-16T10:40:44;101614.69;;;7.25;100.00
60817;BME280;51921;51.518;-3.188;2023-02-16T10:43:05;101607.37;;;6.92;100.00
60817;BME280;51921;51.518;-3.188;2023-02-16T10:45:30;101604.81;;;6.63;100.00
60817;BME280;51921;51.518;-3.188;2023-02-16T10:47:51;101599.73;;;7.17;100.00
60817;BME280;51921;51.518;-3.188;2023-02-16T10:50:22;101594.85;;;6.94;100.00
60817;BME280;51921;51.518;-3.188;2023-02-16T10:52:43;101594.30;;;6.74;100.00
60817;BME280;51921;51.518;-3.188;2023-02-16T10:55:07;101595.12;;;6.67;100.00
60817;BME280;51921;51.518;-3.188;2023-02-16T10:57:33;101598.67;;;6.38;100.00
60817;BME280;51921;51.518;-3.188;2023-02-16T11:00:03;101596.74;;;6.71;100.00
60817;BME280;51921;51.518;-3.188;2023-02-16T11:02:45;101593.24;;;7.41;100.00
60817;BME280;51921;51.518;-3.188;2023-02-16T11:05:00;101589.39;;;7.45;100.00
60817;BME280;51921;51.518;-3.188;2023-02-16T11:07:38;101595.11;;;7.13;100.00
60817;BME280;51921;51.518;-3.188;2023-02-16T11:09:51;101591.57;;;6.73;100.00
60817;BME280;51921;51.518;-3.188;2023-02-16T11:14:32;101599.71;;;7.21;100.00
60817;BME280;51921;51.518;-3.188;2023-02-16T11:17:06;101595.47;;;7.25;100.00
60817;BME280;51921;51.518;-3.188;2023-02-16T11:19:24;101593.38;;;7.60;100.00
60817;BME280;51921;51.518;-3.188;2023-02-16T11:21:51;101591.36;;;7.20;100.00
60817;BME280;51921;51.518;-3.188;2023-02-16T11:24:24;101588.61;;;7.04;100.00
60817;BME280;51921;51.518;-3.188;2023-02-16T11:26:39;101593.77;;;7.78;100.00
60817;BME280;51921;51.518;-3.188;2023-02-16T11:29:15;101599.33;;;6.82;100.00
60817;BME280;51921;51.518;-3.188;2023-02-16T11:31:32;101602.12;;;7.31;100.00
60817;BME280;51921;51.518;-3.188;2023-02-16T11:33:59;101593.12;;;7.37;100.00
60817;BME280;51921;51.518;-3.188;2023-02-16T11:36:28;101598.14;;;6.89;100.00
60817;BME280;51921;51.518;-3.188;2023-02-16T11:38:56;101589.59;;;7.20;100.00
60817;BME280;51921;51.518;-3.188;2023-02-16T11:41:12;101593.07;;;6.93;100.00
60817;BME280;51921;51.518;-3.188;2023-02-16T11:43:41;101594.07;;;7.08;100.00
60817;BME280;51921;51.518;-3.188;2023-02-16T11:46:16;101598.39;;;7.29;100.00
60817;BME280;51921;51.518;-3.188;2023-02-16T11:48:31;101594.02;;;8.04;100.00
60817;BME280;51921;51.518;-3.188;2023-02-16T11:50:57;101598.22;;;7.90;100.00
60817;BME280;51921;51.518;-3.188;2023-02-16T11:53:23;101602.50;;;7.45;100.00
60817;BME280;51921;51.518;-3.188;2023-02-16T11:55:47;101599.93;;;7.54;100.00
60817;BME280;51921;51.518;-3.188;2023-02-16T11:58:15;101598.75;;;7.26;100.00
60817;BME280;51921;51.518;-3.188;2023-02-16T12:00:36;101593.18;;;7.83;100.00
60817;BME280;51921;51.518;-3.188;2023-02-16T12:03:18;101591.98;;;7.00;100.00
60817;BME280;51921;51.518;-3.188;2023-02-16T12:05:36;101591.36;;;7.12;100.00
60817;BME280;51921;51.518;-3.188;2023-02-16T12:08:06;101589.79;;;7.92;100.00
60817;BME280;51921;51.518;-3.188;2023-02-16T12:10:22;101593.31;;;7.37;100.00
60817;BME280;51921;51.518;-3.188;2023-02-16T12:12:51;101600.83;;;7.84;100.00
60817;BME280;51921;51.518;-3.188;2023-02-16T12:15:18;101598.20;;;6.94;100.00
60817;BME280;51921;51.518;-3.188;2023-02-16T12:17:51;101615.60;;;6.78;100.00
60817;BME280;51921;51.518;-3.188;2023-02-16T12:20:21;101604.87;;;6.81;100.00
60817;BME280;51921;51.518;-3.188;2023-02-16T12:22:33;101610.16;;;6.75;100.00
60817;BME280;51921;51.518;-3.188;2023-02-16T12:25:00;101605.59;;;6.49;100.00
60817;BME280;51921;51.518;-3.188;2023-02-16T12:27:21;101603.74;;;6.65;100.00
60817;BME280;51921;51.518;-3.188;2023-02-16T12:29:47;101609.69;;;6.50;100.00
60817;BME280;51921;51.518;-3.188;2023-02-16T12:34:43;101612.51;;;6.39;100.00
60817;BME280;51921;51.518;-3.188;2023-02-16T12:37:03;101615.00;;;6.07;100.00
60817;BME280;51921;51.518;-3.188;2023-02-16T12:39:30;101600.81;;;6.90;100.00
60817;BME280;51921;51.518;-3.188;2023-02-16T12:41:57;101610.66;;;6.96;100.00
60817;BME280;51921;51.518;-3.188;2023-02-16T12:44:18;101614.70;;;7.29;100.00
60817;BME280;51921;51.518;-3.188;2023-02-16T12:46:42;101615.84;;;7.20;100.00
60817;BME280;51921;51.518;-3.188;2023-02-16T12:49:12;101621.15;;;7.05;100.00